createdAt,value
2022-10-18T00:00:15.165Z,0.00
2022-10-18T00:01:15.106Z,0.00
2022-10-18T00:02:15.077Z,0.00
2022-10-18T00:03:14.983Z,0.00
2022-10-18T00:04:14.925Z,0.00
2022-10-18T00:05:14.867Z,0.00
2022-10-18T00:06:14.809Z,0.00
2022-10-18T00:07:14.744Z,0.00
2022-10-18T00:08:14.682Z,0.00
2022-10-18T00:09:14.629Z,0.00
2022-10-18T00:10:14.559Z,0.00
2022-10-18T00:11:14.500Z,0.00
2022-10-18T00:12:14.442Z,0.00
2022-10-18T00:13:14.380Z,0.00
2022-10-18T00:14:14.315Z,0.00
2022-10-18T00:15:14.263Z,0.00
2022-10-18T00:16:14.195Z,0.00
2022-10-18T00:17:14.137Z,0.00
2022-10-18T00:18:14.077Z,0.00
2022-10-18T00:19:14.018Z,0.00
2022-10-18T00:20:13.957Z,0.00
2022-10-18T00:21:13.923Z,0.00
2022-10-18T00:22:13.846Z,0.00
2022-10-18T00:23:13.779Z,0.00
2022-10-18T00:24:13.727Z,0.00
2022-10-18T00:25:13.660Z,0.00
2022-10-18T00:26:13.597Z,0.00
2022-10-18T00:27:13.537Z,0.00
2022-10-18T00:28:13.473Z,0.00
2022-10-18T00:29:13.414Z,0.00
2022-10-18T00:30:13.355Z,0.00
2022-10-18T00:31:13.299Z,0.00
2022-10-18T00:32:13.234Z,0.00
2022-10-18T00:33:13.174Z,0.00
2022-10-18T00:34:13.114Z,0.00
2022-10-18T00:35:13.066Z,0.00
2022-10-18T00:36:12.996Z,0.00
2022-10-18T00:37:12.988Z,0.00
2022-10-18T00:38:12.875Z,0.00
2022-10-18T00:39:12.809Z,0.00
2022-10-18T00:40:12.749Z,0.00
2022-10-18T00:41:12.693Z,0.00
2022-10-18T00:42:12.643Z,0.00
2022-10-18T00:43:12.570Z,0.00
2022-10-18T00:44:12.509Z,0.00
2022-10-18T00:45:12.457Z,0.00
2022-10-18T00:46:12.388Z,0.00
2022-10-18T00:47:12.327Z,0.00
2022-10-18T00:48:12.269Z,0.00
2022-10-18T00:49:12.245Z,0.00
2022-10-18T00:50:12.153Z,0.00
2022-10-18T00:51:12.089Z,0.00
2022-10-18T00:52:12.033Z,0.00
2022-10-18T00:53:11.969Z,0.00
2022-10-18T00:54:11.907Z,0.00
2022-10-18T00:55:11.845Z,0.00
2022-10-18T00:56:11.787Z,0.00
2022-10-18T00:57:11.723Z,0.00
2022-10-18T00:58:11.671Z,0.00
2022-10-18T00:59:11.610Z,0.00
2022-10-18T01:00:11.542Z,0.00
2022-10-18T01:01:11.581Z,0.00
2022-10-18T01:02:11.481Z,0.00
2022-10-18T01:03:11.371Z,0.00
2022-10-18T01:04:11.315Z,0.00
2022-10-18T01:05:11.243Z,0.00
2022-10-18T01:06:11.181Z,0.00
2022-10-18T01:07:11.119Z,0.00
2022-10-18T01:08:11.060Z,0.00
2022-10-18T01:09:11.014Z,0.00
2022-10-18T01:10:10.947Z,0.00
2022-10-18T01:11:10.884Z,0.00
2022-10-18T01:12:10.817Z,0.00
2022-10-18T01:13:10.760Z,0.00
2022-10-18T01:14:10.704Z,0.00
2022-10-18T01:15:10.664Z,0.00
2022-10-18T01:16:10.577Z,0.00
2022-10-18T01:17:10.514Z,0.00
2022-10-18T01:18:10.457Z,0.00
2022-10-18T01:19:10.406Z,0.00
2022-10-18T01:20:10.332Z,0.00
2022-10-18T01:21:10.302Z,0.00
2022-10-18T01:22:10.212Z,0.00
2022-10-18T01:23:10.152Z,0.00
2022-10-18T01:24:10.092Z,0.00
2022-10-18T01:25:10.085Z,0.00
2022-10-18T01:26:09.982Z,0.00
2022-10-18T01:27:09.957Z,0.00
2022-10-18T01:28:09.850Z,0.00
2022-10-18T01:29:09.796Z,0.00
2022-10-18T01:30:09.744Z,0.00
2022-10-18T01:31:09.676Z,0.00
2022-10-18T01:32:09.650Z,0.00
2022-10-18T01:33:09.588Z,0.00
2022-10-18T01:34:09.491Z,0.00
2022-10-18T01:35:09.438Z,0.00
2022-10-18T01:36:09.378Z,0.00
2022-10-18T01:37:09.316Z,0.00
2022-10-18T01:38:09.250Z,0.00
2022-10-18T01:39:09.212Z,0.00
2022-10-18T01:40:09.122Z,0.00
2022-10-18T01:41:13.183Z,0.00
2022-10-18T01:42:09.025Z,0.00
2022-10-18T01:43:08.944Z,0.00
2022-10-18T01:44:08.880Z,0.00
2022-10-18T01:45:08.822Z,0.00
2022-10-18T01:46:08.791Z,0.00
2022-10-18T01:47:08.703Z,0.00
2022-10-18T01:48:08.638Z,0.00
2022-10-18T01:49:08.579Z,0.00
2022-10-18T01:50:08.521Z,0.00
2022-10-18T01:51:08.461Z,0.00
2022-10-18T01:53:08.348Z,0.00
2022-10-18T01:54:08.296Z,0.00
2022-10-18T01:55:08.217Z,0.00
2022-10-18T01:56:08.156Z,0.00
2022-10-18T01:57:08.103Z,0.00
2022-10-18T01:58:08.046Z,0.00
2022-10-18T01:59:07.974Z,0.00
2022-10-18T02:00:07.918Z,0.00
2022-10-18T02:01:07.929Z,0.00
2022-10-18T02:02:07.791Z,0.00
2022-10-18T02:03:07.733Z,0.00
2022-10-18T02:04:07.697Z,0.00
2022-10-18T02:05:07.625Z,0.00
2022-10-18T02:06:07.560Z,0.00
2022-10-18T02:07:07.519Z,0.00
2022-10-18T02:08:22.132Z,0.00
2022-10-18T02:09:07.376Z,0.00
2022-10-18T02:10:07.405Z,0.00
2022-10-18T02:11:07.276Z,0.00
2022-10-18T02:12:07.217Z,0.00
2022-10-18T02:13:07.136Z,0.00
2022-10-18T02:14:07.125Z,0.00
2022-10-18T02:15:07.008Z,0.00
2022-10-18T02:16:06.957Z,0.00
2022-10-18T02:17:06.887Z,0.00
2022-10-18T02:18:06.826Z,0.00
2022-10-18T02:19:06.764Z,0.00
2022-10-18T02:20:06.704Z,0.00
2022-10-18T02:21:06.648Z,0.00
2022-10-18T02:22:06.582Z,0.00
2022-10-18T02:23:06.536Z,0.00
2022-10-18T02:24:06.463Z,0.00
2022-10-18T02:25:06.404Z,0.00
2022-10-18T02:26:06.358Z,0.00
2022-10-18T02:27:06.300Z,0.00
2022-10-18T02:28:06.221Z,0.00
2022-10-18T02:29:06.191Z,0.00
2022-10-18T02:30:06.102Z,0.00
2022-10-18T02:31:06.063Z,0.00
2022-10-18T02:32:05.983Z,0.00
2022-10-18T02:33:05.919Z,0.00
2022-10-18T02:34:05.859Z,0.00
2022-10-18T02:35:05.798Z,0.00
2022-10-18T02:36:05.747Z,0.00
2022-10-18T02:37:05.704Z,0.00
2022-10-18T02:38:05.624Z,0.00
2022-10-18T02:39:05.558Z,0.00
2022-10-18T02:40:05.515Z,0.00
2022-10-18T02:41:05.444Z,0.00
2022-10-18T02:42:05.398Z,0.00
2022-10-18T02:43:05.350Z,0.00
2022-10-18T02:44:05.259Z,0.00
2022-10-18T02:45:05.203Z,0.00
2022-10-18T02:46:05.153Z,0.00
2022-10-18T02:47:05.077Z,0.00
2022-10-18T02:48:05.024Z,0.00
2022-10-18T02:49:04.958Z,0.00
2022-10-18T02:50:04.939Z,0.00
2022-10-18T02:51:04.833Z,0.00
2022-10-18T02:52:04.788Z,0.00
2022-10-18T02:53:04.709Z,0.00
2022-10-18T02:54:04.648Z,0.00
2022-10-18T02:55:04.591Z,0.00
2022-10-18T02:56:04.559Z,0.00
2022-10-18T02:57:04.471Z,0.00
2022-10-18T02:58:04.422Z,0.00
2022-10-18T02:59:04.357Z,0.00
2022-10-18T03:00:04.281Z,0.00
2022-10-18T03:01:04.236Z,0.00
2022-10-18T03:02:04.165Z,0.00
2022-10-18T03:03:04.103Z,0.00
2022-10-18T03:04:04.065Z,0.00
2022-10-18T03:05:04.011Z,0.00
2022-10-18T03:06:03.938Z,0.00
2022-10-18T03:07:03.869Z,0.00
2022-10-18T03:08:03.799Z,0.00
2022-10-18T03:09:03.741Z,0.00
2022-10-18T03:10:03.685Z,0.00
2022-10-18T03:11:03.616Z,0.00
2022-10-18T03:12:03.556Z,0.00
2022-10-18T03:13:03.500Z,0.00
2022-10-18T03:14:03.433Z,0.00
2022-10-18T03:15:03.392Z,0.00
2022-10-18T03:16:03.315Z,0.00
2022-10-18T03:17:03.272Z,0.00
2022-10-18T03:18:03.201Z,0.00
2022-10-18T03:19:03.147Z,0.00
2022-10-18T03:20:03.082Z,0.00
2022-10-18T03:21:03.029Z,0.00
2022-10-18T03:22:02.965Z,0.00
2022-10-18T03:23:02.907Z,0.00
2022-10-18T03:24:02.848Z,0.00
2022-10-18T03:25:02.777Z,0.00
2022-10-18T03:26:02.771Z,0.00
2022-10-18T03:27:02.656Z,0.00
2022-10-18T03:28:02.591Z,0.00
2022-10-18T03:29:02.604Z,0.00
2022-10-18T03:30:02.499Z,0.00
2022-10-18T03:31:02.415Z,0.00
2022-10-18T03:32:02.364Z,0.00
2022-10-18T03:33:02.314Z,0.00
2022-10-18T03:34:02.231Z,0.00
2022-10-18T03:35:02.170Z,0.00
2022-10-18T03:36:02.118Z,0.00
2022-10-18T03:37:04.705Z,0.00
2022-10-18T03:38:01.994Z,0.00
2022-10-18T03:39:01.937Z,0.00
2022-10-18T03:40:01.859Z,0.00
2022-10-18T03:41:01.803Z,0.00
2022-10-18T03:42:01.746Z,0.00
2022-10-18T03:43:01.678Z,0.00
2022-10-18T03:44:01.620Z,0.00
2022-10-18T03:45:01.576Z,0.00
2022-10-18T03:46:01.507Z,0.00
2022-10-18T03:47:01.437Z,0.00
2022-10-18T03:48:01.381Z,0.00
2022-10-18T03:49:01.327Z,0.00
2022-10-18T03:50:01.258Z,0.00
2022-10-18T03:51:01.201Z,0.00
2022-10-18T03:52:01.145Z,0.00
2022-10-18T03:53:01.074Z,0.00
2022-10-18T03:54:01.013Z,0.00
2022-10-18T03:55:00.962Z,0.00
2022-10-18T03:56:00.907Z,0.00
2022-10-18T03:57:00.829Z,0.00
2022-10-18T03:58:00.771Z,0.00
2022-10-18T03:59:00.716Z,0.00
2022-10-18T04:00:00.664Z,0.00
2022-10-18T04:01:00.608Z,0.00
2022-10-18T04:02:00.610Z,0.00
2022-10-18T04:03:00.470Z,0.00
2022-10-18T04:04:00.421Z,0.00
2022-10-18T04:05:00.406Z,0.00
2022-10-18T04:06:00.286Z,0.00
2022-10-18T04:07:00.239Z,0.00
2022-10-18T04:08:00.168Z,0.00
2022-10-18T04:09:00.111Z,0.00
2022-10-18T04:10:00.042Z,0.00
2022-10-18T04:11:00.022Z,0.00
2022-10-18T04:11:59.921Z,0.00
2022-10-18T04:12:59.876Z,0.00
2022-10-18T04:13:59.914Z,0.00
2022-10-18T04:14:59.741Z,0.00
2022-10-18T04:15:59.685Z,0.00
2022-10-18T04:16:59.638Z,0.00
2022-10-18T04:17:59.655Z,0.00
2022-10-18T04:18:59.494Z,0.00
2022-10-18T04:19:59.462Z,0.00
2022-10-18T04:20:59.375Z,0.00
2022-10-18T04:21:59.310Z,0.00
2022-10-18T04:22:59.277Z,0.00
2022-10-18T04:23:59.189Z,0.00
2022-10-18T04:24:59.126Z,0.00
2022-10-18T04:25:59.093Z,0.00
2022-10-18T04:26:59.030Z,0.00
2022-10-18T04:27:59.040Z,0.00
2022-10-18T04:28:59.002Z,0.00
2022-10-18T04:29:58.821Z,0.00
2022-10-18T04:30:58.759Z,0.00
2022-10-18T04:31:58.701Z,0.00
2022-10-18T04:32:58.638Z,0.00
2022-10-18T04:33:58.599Z,0.00
2022-10-18T04:34:58.511Z,0.00
2022-10-18T04:35:58.509Z,0.00
2022-10-18T04:36:58.416Z,0.00
2022-10-18T04:37:58.350Z,0.00
2022-10-18T04:38:58.269Z,0.00
2022-10-18T04:39:58.211Z,0.00
2022-10-18T04:40:58.148Z,0.00
2022-10-18T04:41:58.091Z,0.00
2022-10-18T04:42:58.029Z,0.00
2022-10-18T04:43:57.969Z,0.00
2022-10-18T04:44:57.905Z,0.00
2022-10-18T04:45:57.862Z,0.00
2022-10-18T04:46:57.776Z,0.00
2022-10-18T04:47:57.720Z,0.00
2022-10-18T04:48:57.657Z,0.00
2022-10-18T04:49:57.649Z,0.00
2022-10-18T04:50:57.534Z,0.00
2022-10-18T04:51:57.595Z,0.00
2022-10-18T04:52:57.421Z,0.00
2022-10-18T04:53:57.353Z,0.00
2022-10-18T04:54:57.290Z,0.00
2022-10-18T04:55:57.236Z,0.00
2022-10-18T04:56:57.168Z,0.00
2022-10-18T04:57:57.131Z,0.00
2022-10-18T04:58:57.047Z,0.00
2022-10-18T04:59:57.036Z,0.00
2022-10-18T05:00:56.951Z,0.00
2022-10-18T05:01:57.021Z,0.00
2022-10-18T05:02:56.801Z,0.00
2022-10-18T05:03:56.741Z,0.00
2022-10-18T05:04:56.672Z,0.00
2022-10-18T05:06:01.956Z,0.00
2022-10-18T05:06:56.575Z,0.00
2022-10-18T05:07:56.497Z,0.00
2022-10-18T05:08:56.449Z,0.00
2022-10-18T05:09:56.393Z,0.00
2022-10-18T05:10:56.435Z,0.00
2022-10-18T05:11:56.248Z,0.00
2022-10-18T05:12:56.218Z,0.00
2022-10-18T05:13:56.124Z,0.00
2022-10-18T05:14:56.831Z,0.00
2022-10-18T05:15:56.011Z,0.00
2022-10-18T05:16:55.950Z,0.00
2022-10-18T05:17:55.877Z,0.00
2022-10-18T05:18:55.915Z,0.00
2022-10-18T05:19:55.770Z,0.00
2022-10-18T05:20:55.692Z,0.00
2022-10-18T05:21:55.665Z,0.00
2022-10-18T05:22:55.571Z,0.00
2022-10-18T05:23:55.514Z,0.00
2022-10-18T05:24:55.617Z,4.00
2022-10-18T05:25:55.404Z,4.00
2022-10-18T05:26:55.324Z,0.00
2022-10-18T05:27:55.269Z,0.00
2022-10-18T05:28:55.310Z,4.00
2022-10-18T05:29:55.145Z,4.00
2022-10-18T05:30:55.114Z,4.00
2022-10-18T05:31:55.021Z,4.00
2022-10-18T05:32:54.955Z,4.00
2022-10-18T05:33:54.892Z,4.00
2022-10-18T05:34:54.866Z,4.00
2022-10-18T05:35:54.802Z,8.00
2022-10-18T05:36:54.713Z,8.00
2022-10-18T05:37:54.656Z,4.00
2022-10-18T05:38:54.588Z,8.00
2022-10-18T05:39:54.548Z,8.00
2022-10-18T05:40:54.482Z,8.00
2022-10-18T05:41:54.400Z,12.00
2022-10-18T05:42:54.339Z,12.00
2022-10-18T05:43:54.288Z,12.00
2022-10-18T05:44:54.216Z,16.00
2022-10-18T05:45:54.165Z,16.00
2022-10-18T05:46:54.100Z,16.00
2022-10-18T05:47:54.041Z,20.00
2022-10-18T05:48:54.010Z,20.00
2022-10-18T05:49:53.934Z,24.00
2022-10-18T05:50:53.884Z,24.00
2022-10-18T05:51:53.812Z,24.00
2022-10-18T05:52:53.802Z,24.00
2022-10-18T05:53:53.671Z,24.00
2022-10-18T05:54:53.638Z,28.00
2022-10-18T05:55:53.563Z,24.00
2022-10-18T05:56:53.541Z,20.00
2022-10-18T05:57:53.421Z,20.00
2022-10-18T05:58:53.409Z,20.00
2022-10-18T05:59:53.293Z,20.00
2022-10-18T06:00:53.310Z,16.00
2022-10-18T06:01:53.210Z,20.00
2022-10-18T06:02:55.265Z,20.00
2022-10-18T06:03:53.053Z,16.00
2022-10-18T06:04:53.000Z,20.00
2022-10-18T06:05:52.943Z,20.00
2022-10-18T06:06:52.866Z,20.00
2022-10-18T06:07:52.834Z,24.00
2022-10-18T06:08:52.741Z,28.00
2022-10-18T06:09:52.682Z,28.00
2022-10-18T06:10:52.627Z,36.00
2022-10-18T06:11:52.556Z,36.00
2022-10-18T06:12:52.599Z,40.00
2022-10-18T06:13:52.435Z,40.00
2022-10-18T06:14:52.373Z,48.00
2022-10-18T06:15:52.365Z,52.00
2022-10-18T06:16:52.254Z,52.00
2022-10-18T06:17:52.191Z,60.00
2022-10-18T06:18:52.127Z,64.00
2022-10-18T06:19:52.097Z,72.00
2022-10-18T06:20:52.007Z,80.00
2022-10-18T06:21:51.945Z,80.00
2022-10-18T06:22:51.950Z,80.00
2022-10-18T06:23:51.836Z,76.00
2022-10-18T06:24:56.459Z,64.00
2022-10-18T06:25:51.715Z,56.00
2022-10-18T06:26:51.635Z,48.00
2022-10-18T06:27:51.576Z,40.00
2022-10-18T06:28:51.610Z,36.00
2022-10-18T06:29:51.453Z,32.00
2022-10-18T06:30:51.392Z,28.00
2022-10-18T06:31:51.348Z,28.00
2022-10-18T06:32:51.266Z,28.00
2022-10-18T06:33:51.207Z,28.00
2022-10-18T06:34:51.164Z,32.00
2022-10-18T06:35:51.113Z,40.00
2022-10-18T06:36:53.867Z,44.00
2022-10-18T06:37:51.002Z,48.00
2022-10-18T06:38:50.903Z,60.00
2022-10-18T06:39:50.840Z,72.00
2022-10-18T06:40:50.775Z,84.00
2022-10-18T06:41:50.734Z,96.00
2022-10-18T06:43:00.054Z,104.00
2022-10-18T06:43:50.595Z,112.00
2022-10-18T06:44:50.577Z,116.00
2022-10-18T06:45:50.473Z,124.00
2022-10-18T06:46:50.410Z,124.00
2022-10-18T06:47:50.350Z,120.00
2022-10-18T06:48:50.287Z,116.00
2022-10-18T06:49:50.567Z,108.00
2022-10-18T06:50:50.160Z,100.00
2022-10-18T06:51:50.099Z,96.00
2022-10-18T06:52:50.039Z,96.00
2022-10-18T06:53:59.596Z,92.00
2022-10-18T06:54:49.947Z,96.00
2022-10-18T06:55:49.870Z,100.00
2022-10-18T06:56:49.863Z,100.00
2022-10-18T06:57:49.736Z,108.00
2022-10-18T06:58:49.760Z,116.00
2022-10-18T06:59:49.608Z,120.00
2022-10-18T07:00:49.563Z,136.00
2022-10-18T07:01:49.537Z,148.00
2022-10-18T07:02:49.425Z,152.00
2022-10-18T07:03:49.407Z,164.00
2022-10-18T07:04:49.323Z,172.00
2022-10-18T07:05:49.243Z,184.00
2022-10-18T07:06:49.233Z,188.00
2022-10-18T07:07:52.906Z,196.00
2022-10-18T07:08:49.055Z,204.00
2022-10-18T07:09:49.000Z,208.00
2022-10-18T07:10:48.955Z,228.00
2022-10-18T07:11:48.872Z,244.00
2022-10-18T07:12:48.805Z,260.00
2022-10-18T07:13:48.749Z,268.00
2022-10-18T07:14:48.679Z,272.00
2022-10-18T07:15:48.653Z,276.00
2022-10-18T07:16:48.572Z,292.00
2022-10-18T07:17:48.496Z,308.00
2022-10-18T07:18:48.440Z,316.00
2022-10-18T07:19:48.371Z,312.00
2022-10-18T07:20:48.326Z,312.00
2022-10-18T07:21:48.246Z,316.00
2022-10-18T07:22:48.206Z,332.00
2022-10-18T07:23:48.130Z,352.00
2022-10-18T07:24:48.159Z,372.00
2022-10-18T07:25:48.044Z,384.00
2022-10-18T07:26:47.947Z,368.00
2022-10-18T07:27:47.880Z,344.00
2022-10-18T07:28:47.900Z,312.00
2022-10-18T07:29:47.760Z,296.00
2022-10-18T07:30:47.695Z,284.00
2022-10-18T07:31:47.656Z,272.00
2022-10-18T07:32:47.584Z,252.00
2022-10-18T07:33:47.509Z,236.00
2022-10-18T07:34:47.459Z,224.00
2022-10-18T07:35:47.400Z,212.00
2022-10-18T07:36:47.331Z,196.00
2022-10-18T07:37:47.262Z,184.00
2022-10-18T07:38:47.206Z,176.00
2022-10-18T07:39:47.145Z,156.00
2022-10-18T07:40:47.094Z,148.00
2022-10-18T07:41:47.019Z,144.00
2022-10-18T07:42:46.961Z,144.00
2022-10-18T07:43:46.909Z,148.00
2022-10-18T07:44:46.842Z,156.00
2022-10-18T07:45:46.781Z,168.00
2022-10-18T07:46:46.782Z,164.00
2022-10-18T07:47:46.647Z,148.00
2022-10-18T07:48:46.593Z,148.00
2022-10-18T07:49:46.523Z,184.00
2022-10-18T07:50:46.493Z,216.00
2022-10-18T07:51:46.403Z,244.00
2022-10-18T07:52:46.385Z,268.00
2022-10-18T07:53:46.288Z,284.00
2022-10-18T07:54:46.233Z,284.00
2022-10-18T07:55:46.173Z,284.00
2022-10-18T07:56:46.103Z,268.00
2022-10-18T07:57:46.053Z,260.00
2022-10-18T07:58:45.987Z,244.00
2022-10-18T07:59:45.925Z,228.00
2022-10-18T08:00:45.860Z,216.00
2022-10-18T08:01:45.852Z,196.00
2022-10-18T08:02:45.729Z,180.00
2022-10-18T08:03:45.688Z,160.00
2022-10-18T08:04:45.620Z,148.00
2022-10-18T08:05:45.564Z,136.00
2022-10-18T08:06:45.484Z,124.00
2022-10-18T08:07:45.421Z,116.00
2022-10-18T08:08:45.373Z,112.00
2022-10-18T08:09:45.297Z,108.00
2022-10-18T08:10:45.271Z,112.00
2022-10-18T08:11:45.177Z,116.00
2022-10-18T08:12:45.113Z,120.00
2022-10-18T08:13:45.053Z,120.00
2022-10-18T08:14:44.999Z,132.00
2022-10-18T08:15:44.949Z,136.00
2022-10-18T08:16:44.866Z,144.00
2022-10-18T08:17:44.832Z,144.00
2022-10-18T08:18:44.741Z,140.00
2022-10-18T08:19:52.946Z,156.00
2022-10-18T08:20:44.637Z,180.00
2022-10-18T08:21:44.561Z,188.00
2022-10-18T08:22:44.493Z,196.00
2022-10-18T08:23:44.445Z,196.00
2022-10-18T08:24:44.373Z,204.00
2022-10-18T08:25:44.312Z,200.00
2022-10-18T08:26:44.257Z,204.00
2022-10-18T08:27:44.188Z,204.00
2022-10-18T08:28:53.640Z,204.00
2022-10-18T08:29:44.104Z,204.00
2022-10-18T08:30:44.014Z,196.00
2022-10-18T08:31:43.945Z,200.00
2022-10-18T08:32:43.899Z,196.00
2022-10-18T08:33:43.817Z,192.00
2022-10-18T08:34:43.758Z,188.00
2022-10-18T08:35:43.704Z,188.00
2022-10-18T08:36:43.636Z,184.00
2022-10-18T08:37:43.571Z,184.00
2022-10-18T08:38:43.509Z,188.00
2022-10-18T08:39:43.446Z,192.00
2022-10-18T08:40:43.396Z,196.00
2022-10-18T08:41:43.323Z,196.00
2022-10-18T08:42:43.261Z,192.00
2022-10-18T08:43:43.198Z,184.00
2022-10-18T08:44:43.140Z,172.00
2022-10-18T08:45:43.472Z,160.00
2022-10-18T08:46:43.013Z,148.00
2022-10-18T08:47:42.952Z,144.00
2022-10-18T08:48:42.903Z,136.00
2022-10-18T08:49:46.516Z,128.00
2022-10-18T08:50:42.780Z,124.00
2022-10-18T08:51:42.705Z,132.00
2022-10-18T08:52:42.650Z,136.00
2022-10-18T08:53:42.580Z,136.00
2022-10-18T08:54:42.520Z,136.00
2022-10-18T08:55:42.469Z,152.00
2022-10-18T08:56:42.400Z,172.00
2022-10-18T08:57:42.344Z,192.00
2022-10-18T08:58:42.277Z,200.00
2022-10-18T08:59:42.216Z,216.00
2022-10-18T09:00:42.167Z,244.00
2022-10-18T09:01:42.188Z,272.00
2022-10-18T09:02:42.048Z,292.00
2022-10-18T09:03:42.003Z,304.00
2022-10-18T09:04:41.905Z,312.00
2022-10-18T09:05:41.877Z,320.00
2022-10-18T09:06:41.797Z,328.00
2022-10-18T09:07:41.720Z,336.00
2022-10-18T09:08:41.663Z,340.00
2022-10-18T09:09:41.597Z,336.00
2022-10-18T09:10:41.544Z,336.00
2022-10-18T09:11:41.511Z,340.00
2022-10-18T09:12:41.415Z,336.00
2022-10-18T09:13:41.354Z,324.00
2022-10-18T09:14:41.303Z,288.00
2022-10-18T09:15:41.234Z,236.00
2022-10-18T09:16:41.171Z,192.00
2022-10-18T09:17:41.121Z,156.00
2022-10-18T09:18:41.089Z,144.00
2022-10-18T09:19:40.981Z,180.00
2022-10-18T09:20:40.934Z,212.00
2022-10-18T09:21:40.873Z,236.00
2022-10-18T09:22:40.807Z,252.00
2022-10-18T09:23:40.749Z,260.00
2022-10-18T09:24:40.677Z,236.00
2022-10-18T09:25:40.614Z,208.00
2022-10-18T09:26:40.577Z,196.00
2022-10-18T09:27:40.495Z,216.00
2022-10-18T09:28:49.166Z,220.00
2022-10-18T09:30:44.790Z,196.00
2022-10-18T09:31:44.719Z,180.00
2022-10-18T09:32:44.645Z,168.00
2022-10-18T09:33:44.582Z,176.00
2022-10-18T09:34:44.521Z,180.00
2022-10-18T09:35:44.468Z,184.00
2022-10-18T09:36:44.396Z,180.00
2022-10-18T09:37:44.333Z,200.00
2022-10-18T09:38:44.272Z,208.00
2022-10-18T09:39:44.212Z,236.00
2022-10-18T09:40:44.163Z,264.00
2022-10-18T09:41:44.081Z,292.00
2022-10-18T09:42:44.033Z,328.00
2022-10-18T09:43:43.958Z,360.00
2022-10-18T09:44:43.903Z,384.00
2022-10-18T09:45:43.850Z,404.00
2022-10-18T09:46:43.798Z,408.00
2022-10-18T09:47:43.716Z,416.00
2022-10-18T09:48:43.654Z,400.00
2022-10-18T09:49:43.602Z,396.00
2022-10-18T09:50:43.543Z,388.00
2022-10-18T09:51:43.465Z,384.00
2022-10-18T09:52:43.407Z,380.00
2022-10-18T09:53:43.342Z,376.00
2022-10-18T09:54:43.278Z,368.00
2022-10-18T09:55:43.237Z,348.00
2022-10-18T09:56:43.193Z,332.00
2022-10-18T09:57:43.095Z,320.00
2022-10-18T09:58:43.035Z,312.00
2022-10-18T09:59:42.979Z,312.00
2022-10-18T10:00:42.929Z,308.00
2022-10-18T10:01:42.856Z,304.00
2022-10-18T10:02:42.812Z,280.00
2022-10-18T10:03:42.733Z,276.00
2022-10-18T10:04:42.669Z,272.00
2022-10-18T10:05:42.617Z,256.00
2022-10-18T10:06:42.540Z,260.00
2022-10-18T10:07:42.479Z,248.00
2022-10-18T10:08:42.416Z,244.00
2022-10-18T10:09:42.353Z,232.00
2022-10-18T10:10:42.305Z,228.00
2022-10-18T10:11:42.238Z,216.00
2022-10-18T10:12:42.171Z,204.00
2022-10-18T10:13:42.109Z,204.00
2022-10-18T10:14:42.049Z,196.00
2022-10-18T10:15:42.610Z,180.00
2022-10-18T10:16:41.938Z,180.00
2022-10-18T10:17:41.860Z,180.00
2022-10-18T10:18:41.803Z,204.00
2022-10-18T10:19:41.741Z,208.00
2022-10-18T10:20:41.680Z,204.00
2022-10-18T10:21:41.611Z,196.00
2022-10-18T10:22:41.553Z,200.00
2022-10-18T10:23:41.499Z,212.00
2022-10-18T10:24:41.430Z,212.00
2022-10-18T10:25:41.375Z,212.00
2022-10-18T10:26:41.302Z,200.00
2022-10-18T10:27:41.241Z,196.00
2022-10-18T10:28:41.233Z,236.00
2022-10-18T10:29:44.730Z,252.00
2022-10-18T10:30:41.067Z,260.00
2022-10-18T10:31:40.993Z,272.00
2022-10-18T10:32:40.931Z,280.00
2022-10-18T10:33:40.885Z,284.00
2022-10-18T10:34:42.434Z,288.00
2022-10-18T10:35:56.102Z,292.00
2022-10-18T10:36:40.716Z,288.00
2022-10-18T10:37:40.625Z,288.00
2022-10-18T10:38:40.565Z,288.00
2022-10-18T10:39:42.873Z,296.00
2022-10-18T10:40:40.457Z,300.00
2022-10-18T10:41:40.384Z,296.00
2022-10-18T10:42:40.331Z,300.00
2022-10-18T10:43:40.582Z,300.00
2022-10-18T10:44:40.195Z,308.00
2022-10-18T10:45:40.151Z,320.00
2022-10-18T10:46:40.070Z,340.00
2022-10-18T10:47:40.003Z,360.00
2022-10-18T10:48:39.948Z,384.00
2022-10-18T10:49:41.260Z,404.00
2022-10-18T10:50:39.839Z,416.00
2022-10-18T10:51:39.757Z,412.00
2022-10-18T10:52:40.017Z,416.00
2022-10-18T10:53:39.632Z,428.00
2022-10-18T10:54:39.574Z,444.00
2022-10-18T10:55:39.566Z,456.00
2022-10-18T10:56:39.452Z,476.00
2022-10-18T10:57:39.437Z,480.00
2022-10-18T10:58:39.326Z,476.00
2022-10-18T10:59:39.277Z,456.00
2022-10-18T11:00:39.216Z,440.00
2022-10-18T11:01:39.137Z,432.00
2022-10-18T11:02:39.122Z,432.00
2022-10-18T11:03:39.029Z,440.00
2022-10-18T11:04:38.957Z,436.00
2022-10-18T11:05:38.910Z,428.00
2022-10-18T11:06:38.833Z,432.00
2022-10-18T11:07:38.775Z,444.00
2022-10-18T11:08:38.772Z,444.00
2022-10-18T11:09:38.642Z,416.00
2022-10-18T11:10:38.594Z,372.00
2022-10-18T11:11:38.523Z,336.00
2022-10-18T11:12:38.464Z,304.00
2022-10-18T11:13:38.403Z,284.00
2022-10-18T11:14:38.338Z,272.00
2022-10-18T11:15:38.287Z,256.00
2022-10-18T11:16:38.227Z,252.00
2022-10-18T11:17:38.149Z,264.00
2022-10-18T11:18:38.091Z,288.00
2022-10-18T11:19:38.034Z,300.00
2022-10-18T11:20:37.997Z,308.00
2022-10-18T11:21:37.907Z,320.00
2022-10-18T11:22:37.843Z,332.00
2022-10-18T11:23:37.782Z,336.00
2022-10-18T11:24:37.723Z,344.00
2022-10-18T11:25:37.694Z,352.00
2022-10-18T11:26:40.943Z,360.00
2022-10-18T11:27:37.599Z,332.00
2022-10-18T11:28:37.528Z,296.00
2022-10-18T11:29:37.431Z,260.00
2022-10-18T11:30:37.368Z,224.00
2022-10-18T11:31:37.339Z,192.00
2022-10-18T11:32:37.268Z,188.00
2022-10-18T11:34:03.465Z,208.00
2022-10-18T11:34:37.146Z,224.00
2022-10-18T11:35:37.063Z,292.00
2022-10-18T11:36:37.012Z,400.00
2022-10-18T11:37:38.501Z,500.00
2022-10-18T11:38:36.869Z,580.00
2022-10-18T11:39:36.799Z,616.00
2022-10-18T11:40:36.755Z,636.00
2022-10-18T11:41:36.675Z,656.00
2022-10-18T11:42:39.796Z,652.00
2022-10-18T11:44:00.725Z,652.00
2022-10-18T11:44:36.500Z,648.00
2022-10-18T11:45:36.459Z,588.00
2022-10-18T11:46:36.371Z,516.00
2022-10-18T11:47:36.317Z,568.00
2022-10-18T11:48:36.299Z,600.00
2022-10-18T11:49:36.190Z,592.00
2022-10-18T11:50:36.130Z,524.00
2022-10-18T11:51:50.221Z,484.00
2022-10-18T11:52:36.034Z,488.00
2022-10-18T11:53:35.946Z,552.00
2022-10-18T11:54:35.913Z,584.00
2022-10-18T11:55:35.832Z,548.00
2022-10-18T11:56:35.755Z,536.00
2022-10-18T11:57:36.028Z,540.00
2022-10-18T11:58:35.656Z,592.00
2022-10-18T11:59:35.565Z,536.00
2022-10-18T12:00:35.530Z,488.00
2022-10-18T12:01:35.467Z,448.00
2022-10-18T12:02:35.963Z,424.00
2022-10-18T12:03:35.338Z,520.00
2022-10-18T12:04:35.283Z,656.00
2022-10-18T12:05:35.231Z,696.00
2022-10-18T12:06:35.162Z,696.00
2022-10-18T12:07:35.087Z,700.00
2022-10-18T12:08:35.023Z,728.00
2022-10-18T12:09:35.059Z,700.00
2022-10-18T12:10:46.114Z,612.00
2022-10-18T12:11:34.849Z,444.00
2022-10-18T12:12:34.980Z,428.00
2022-10-18T12:13:34.710Z,420.00
2022-10-18T12:14:34.642Z,404.00
2022-10-18T12:15:34.603Z,524.00
2022-10-18T12:16:50.502Z,536.00
2022-10-18T12:17:47.554Z,456.00
2022-10-18T12:18:34.396Z,368.00
2022-10-18T12:19:34.354Z,280.00
2022-10-18T12:20:34.295Z,236.00
2022-10-18T12:21:34.231Z,232.00
2022-10-18T12:22:34.656Z,236.00
2022-10-18T12:23:34.126Z,296.00
2022-10-18T12:24:34.068Z,320.00
2022-10-18T12:25:33.991Z,336.00
2022-10-18T12:26:33.927Z,404.00
2022-10-18T12:27:33.857Z,400.00
2022-10-18T12:28:33.875Z,468.00
2022-10-18T12:29:33.726Z,528.00
2022-10-18T12:30:33.685Z,524.00
2022-10-18T12:31:33.624Z,500.00
2022-10-18T12:32:34.014Z,508.00
2022-10-18T12:33:33.508Z,588.00
2022-10-18T12:34:33.450Z,672.00
2022-10-18T12:35:33.368Z,772.00
2022-10-18T12:36:33.292Z,720.00
2022-10-18T12:37:33.668Z,708.00
2022-10-18T12:38:33.170Z,728.00
2022-10-18T12:39:43.422Z,760.00
2022-10-18T12:40:33.068Z,792.00
2022-10-18T12:41:32.988Z,764.00
2022-10-18T12:42:32.940Z,688.00
2022-10-18T12:43:32.874Z,656.00
2022-10-18T12:44:32.810Z,564.00
2022-10-18T12:45:32.761Z,628.00
2022-10-18T12:47:32.872Z,660.00
2022-10-18T12:48:32.560Z,612.00
2022-10-18T12:49:32.523Z,572.00
2022-10-18T12:50:32.473Z,588.00
2022-10-18T12:51:32.409Z,568.00
2022-10-18T12:52:32.363Z,588.00
2022-10-18T12:53:32.252Z,576.00